Clark Fork, Idaho
Current Conditions -  °F | °C
As of 2:15 AM on Tuesday 21 Oct 2014 (Local Time) from KSZT Reporting Station
Overcast Overcast  
Wind Chill: 54°   Ceiling: 7000
Heat Index: 54°   Visibility: 10mi
Dew Point: 43°   Wind: 7mph
Humidity: 67%   Direction: 220°SW
Pressure: 29.81"   Gusts: NA
Location:  48.15°N, 116.18°W
Report Text: KSZT 210915Z AUTO 22006KT 10SM OVC070 12/06 A2981 RMK AO2
Loading
Personal Weather Stations






























Interactive Weather Map
Tropical Storm Tracking
New forecast layout! Learn more

10-Day Weather Forecast

Advertisements
Track Severe Weather on mobile